Latest Weather Observations for Geelong Racecourse

IDV60801

Issued at 1:35 pm EST Saturday 23 August 2014 (issued every 30 minutes, with the page automatically refreshed every 10 minutes)

About weather observations | Map of weather stations | Latest weather observations for VIC | Other Formats
Station Details ID: 087184 Name: GEELONG RACECOURSE Lat: -38.17 Lon: 144.38 Height: 12.9 m
Data from the previous 72 hours. | See also: Recent months at Geelong Racecourse
Date/Time
EST
Temp
°C
App
Temp
°C
Dew
Point
Rel
Hum
%
Delta-T
°C
Wind Press
QNH
hPa
Press
MSL
hPa
Rain
since 9 am
mm
Dir
 
Spd
km/h
Gust
km/h
Spd
kts
Gust
kts
23/01:30pm 18.2 14.6 9.8 58 4.4 NE 19 30 10 16 1024.3 1024.3 0.0
23/01:00pm 17.5 13.9 9.7 60 4.1 NE 19 30 10 16 1024.9 1024.9 0.0
23/12:30pm 17.4 13.6 9.8 61 4.0 ENE 20 28 11 15 1025.4 1025.4 0.0
23/12:00pm 17.0 13.8 9.9 63 3.7 ENE 17 30 9 16 1026.2 1026.2 0.0
23/11:30am 16.5 13.8 10.4 67 3.2 NE 15 22 8 12 1026.7 1026.7 0.0
23/11:00am 15.1 12.7 10.1 72 2.6 NE 13 19 7 10 1027.3 1027.3 0.0
23/10:30am 13.8 10.9 9.8 77 2.1 NE 15 20 8 11 1027.7 1027.8 0.0
23/10:00am 12.4 9.3 8.9 79 1.7 NE 15 20 8 11 1027.8 1027.9 0.0
23/09:30am 11.8 8.5 8.1 78 1.8 NE 15 22 8 12 1028.0 1028.1 0.0
23/09:00am 11.4 8.4 7.7 78 1.8 NE 13 19 7 10 1028.3 1028.4 0.0
23/08:30am 10.9 8.4 8.0 82 1.4 NE 11 17 6 9 1028.3 1028.4 0.0
23/08:00am 10.0 8.0 8.8 92 0.6 NE 9 13 5 7 1028.2 1028.3 0.0
23/07:30am 9.0 7.2 7.9 93 0.5 NE 7 11 4 6 1028.1 1028.2 0.0
23/07:00am 8.6 5.9 7.5 93 0.5 NE 11 15 6 8 1027.8 1027.9 0.0
23/06:30am 8.7 6.1 7.6 93 0.5 NE 11 15 6 8 1027.3 1027.3 0.0
23/06:00am 8.6 5.9 7.5 93 0.5 NE 11 15 6 8 1027.2 1027.2 0.0
23/05:30am 8.5 6.2 7.6 94 0.4 NE 9 13 5 7 1027.1 1027.1 0.0
23/05:00am 8.2 5.9 7.3 94 0.4 NE 9 11 5 6 1027.0 1027.0 0.0
23/04:30am 8.0 6.2 7.2 95 0.4 NNE 6 11 3 6 1027.0 1027.0 0.0
23/04:00am 7.1 4.9 6.4 95 0.3 NNE 7 9 4 5 1027.0 1027.0 0.0
23/03:30am 7.0 5.0 6.3 95 0.3 NNE 6 7 3 4 1027.1 1027.1 0.0
23/03:00am 5.6 3.7 4.7 94 0.4 NNE 4 4 2 2 1027.3 1027.3 0.0
23/02:30am 5.6 3.7 4.7 94 0.4 NNE 4 6 2 3 1027.4 1027.4 0.0
23/02:00am 6.2 4.4 5.3 94 0.4 NNE 4 6 2 3 1027.6 1027.7 0.0
23/01:30am 7.1 5.5 6.2 94 0.4 NNE 4 6 2 3 1027.7 1027.8 0.0
23/01:00am 7.6 6.8 6.7 94 0.4 CALM 0 0 0 0 1027.8 1027.9 0.0
23/12:30am 7.3 6.5 6.4 94 0.4 NNE 0 0 0 0 1027.9 1028.0 0.0
23/12:00am 8.7 7.8 7.6 93 0.5 NNE 2 4 1 2 1027.8 1027.9 0.0
 
Date/Time
EST
Temp
°C
App
Temp
°C
Dew
Point
Rel
Hum
%
Delta-T
°C
Wind Press
QNH
hPa
Press
MSL
hPa
Rain
since 9 am
mm
Dir
 
Spd
km/h
Gust
km/h
Spd
kts
Gust
kts
22/11:30pm 9.8 8.8 8.7 93 0.5 NNE 4 6 2 3 1028.0 1028.1 0.0
22/11:00pm 10.8 9.4 9.7 93 0.5 NNE 7 9 4 5 1028.1 1028.2 0.0
22/10:30pm 11.2 9.6 10.1 93 0.6 NNE 9 13 5 7 1028.3 1028.4 0.0
22/10:00pm 11.1 9.4 9.9 92 0.6 NNE 9 13 5 7 1028.3 1028.4 0.0
22/09:30pm 10.8 9.6 9.6 92 0.6 N 6 7 3 4 1028.5 1028.6 0.0
22/09:00pm 10.9 9.5 8.8 87 1.0 N 6 7 3 4 1028.5 1028.6 0.0
22/08:30pm 11.2 10.1 10.0 92 0.6 N 6 7 3 4 1028.6 1028.7 0.0
22/08:00pm 10.9 10.1 9.7 92 0.6 NNE 4 7 2 4 1028.6 1028.7 0.0
22/07:30pm 10.4 9.5 9.2 92 0.6 E 4 7 2 4 1028.4 1028.5 0.0
22/07:00pm 11.0 11.0 9.8 92 0.6 CALM 0 0 0 0 1028.2 1028.3 0.0
22/06:30pm 12.8 11.8 8.9 77 2.0 SE 4 6 2 3 1028.0 1028.1 0.0
22/06:00pm 13.9 12.4 8.3 69 2.8 SE 6 9 3 5 1027.7 1027.8 0.0
22/05:30pm 15.4 13.2 7.7 60 3.8 ESE 9 15 5 8 1027.5 1027.5 0.0
22/05:00pm 16.4 14.3 8.4 59 4.0 ESE 9 15 5 8 1027.5 1027.5 0.0
22/04:30pm 17.0 14.8 7.9 55 4.6 ESE 9 15 5 8 1027.4 1027.4 0.0
22/04:00pm 17.1 15.1 8.8 58 4.3 E 9 13 5 7 1027.4 1027.4 0.0
22/03:30pm 18.3 16.1 8.0 51 5.3 ENE 9 17 5 9 1027.5 1027.5 0.0
22/03:00pm 18.5 16.0 6.7 46 5.9 ENE 9 17 5 9 1027.6 1027.7 0.0
22/02:30pm 17.6 15.7 7.6 52 5.0 ENE 7 13 4 7 1027.9 1028.0 0.0
22/02:00pm 18.2 16.5 8.5 53 5.0 ENE 7 13 4 7 1028.1 1028.2 0.0
22/01:30pm 18.2 16.7 9.3 56 4.7 ENE 7 13 4 7 1028.6 1028.7 0.0
22/01:00pm 17.6 16.4 9.5 59 4.2 ENE 6 9 3 5 1029.0 1029.1 0.0
22/12:30pm 16.4 15.0 9.6 64 3.5 NE 7 11 4 6 1029.5 1029.6 0.0
22/12:00pm 15.4 14.0 9.5 68 3.0 NE 7 9 4 5 1029.9 1030.0 0.0
22/11:30am 14.8 12.9 9.2 69 2.9 NE 9 13 5 7 1030.3 1030.4 0.0
22/11:00am 14.5 13.1 8.7 68 2.9 NE 6 9 3 5 1030.6 1030.7 0.0
22/10:30am 13.5 11.6 9.2 75 2.2 NE 9 11 5 6 1030.8 1030.9 0.0
22/10:00am 12.1 10.8 10.0 87 1.1 NE 7 11 4 6 1030.9 1031.0 0.0
22/09:30am 11.0 9.3 9.9 93 0.6 NNE 9 13 5 7 1031.0 1031.1 0.0
22/09:00am 10.3 8.9 9.4 94 0.4 N 7 9 4 5 1031.0 1031.1 0.0
22/08:30am 9.9 8.4 9.1 95 0.4 NNE 7 13 4 7 1031.0 1031.1 0.0
22/08:00am 7.5 6.8 6.8 95 0.3 CALM 0 2 0 1 1030.8 1030.9 0.0
22/07:30am 4.6 2.9 3.9 95 0.3 N 2 4 1 2 1030.4 1030.5 0.0
22/07:00am 4.5 2.8 3.8 95 0.3 N 2 4 1 2 1030.0 1030.1 0.0
22/06:30am 4.2 2.4 3.5 95 0.3 N 2 4 1 2 1029.8 1029.9 0.0
22/06:00am 3.8 1.9 3.1 95 0.3 N 2 4 1 2 1029.7 1029.8 0.0
22/05:30am 4.8 2.7 4.1 95 0.3 N 4 6 2 3 1029.6 1029.7 0.0
22/05:00am 5.1 3.5 4.4 95 0.3 N 2 4 1 2 1029.5 1029.6 0.0
22/04:30am 4.4 2.6 3.7 95 0.3 N 2 4 1 2 1029.2 1029.3 0.0
22/04:00am 4.4 2.3 3.7 95 0.3 N 4 4 2 2 1029.1 1029.2 0.0
22/03:30am 5.0 3.0 4.3 95 0.3 N 4 4 2 2 1029.2 1029.3 0.0
22/03:00am 5.1 2.7 4.4 95 0.3 N 6 7 3 4 1029.1 1029.2 0.0
22/02:30am 4.4 2.3 3.7 95 0.3 NE 4 4 2 2 1029.3 1029.4 0.0
22/02:00am 4.9 2.9 4.2 95 0.3 NE 4 4 2 2 1029.4 1029.5 0.0
22/01:30am 5.3 3.7 4.6 95 0.3 NE 2 4 1 2 1029.5 1029.6 0.0
22/01:00am 5.4 3.8 4.5 94 0.4 NE 2 4 1 2 1029.3 1029.4 0.0
22/12:30am 6.4 5.0 5.5 94 0.4 NE 2 4 1 2 1029.3 1029.4 0.0
22/12:00am 6.7 5.4 5.8 94 0.4 NE 2 4 1 2 1029.4 1029.5 0.0
 
Date/Time
EST
Temp
°C
App
Temp
°C
Dew
Point
Rel
Hum
%
Delta-T
°C
Wind Press
QNH
hPa
Press
MSL
hPa
Rain
since 9 am
mm
Dir
 
Spd
km/h
Gust
km/h
Spd
kts
Gust
kts
21/11:30pm 6.4 5.0 5.5 94 0.4 NE 2 4 1 2 1029.4 1029.5 0.0
21/11:00pm 6.8 5.9 5.9 94 0.4 CALM 0 0 0 0 1029.3 1029.4 0.0
21/10:30pm 7.7 7.0 6.8 94 0.4 CALM 0 4 0 2 1029.2 1029.3 0.0
21/10:00pm 7.7 7.0 6.8 94 0.4 CALM 0 0 0 0 1029.3 1029.4 0.0
21/09:30pm 8.3 7.7 7.4 94 0.4 CALM 0 0 0 0 1029.1 1029.2 0.0
21/09:00pm 8.9 8.4 7.8 93 0.5 CALM 0 0 0 0 1029.0 1029.1 0.0
21/08:30pm 9.7 9.0 8.6 93 0.5 WSW 2 2 1 1 1028.8 1028.9 0.0
21/08:00pm 9.8 9.1 8.7 93 0.5 SW 2 4 1 2 1028.6 1028.7 0.0
21/07:30pm 10.3 9.4 9.2 93 0.5 SW 4 6 2 3 1028.6 1028.7 0.0
21/07:00pm 10.5 9.6 9.4 93 0.5 SSW 4 7 2 4 1028.4 1028.5 0.0
21/06:30pm 11.7 10.7 10.4 92 0.7 S 6 7 3 4 1028.1 1028.2 0.0
21/06:00pm 12.8 11.2 8.9 77 1.9 S 7 13 4 7 1027.8 1027.9 0.0
21/05:30pm 13.7 12.0 8.3 70 2.7 ESE 7 13 4 7 1027.5 1027.5 0.0
21/05:00pm 14.4 12.7 8.4 67 3.0 E 7 13 4 7 1027.3 1027.3 0.0
21/04:30pm 14.8 12.7 8.3 65 3.3 E 9 13 5 7 1027.1 1027.1 0.0
21/04:00pm 14.4 12.9 8.6 68 2.9 ENE 6 9 3 5 1027.0 1027.0 0.0
21/03:30pm 14.1 12.6 8.5 69 2.8 NE 6 11 3 6 1027.1 1027.1 0.0
21/03:00pm 13.8 12.7 8.4 70 2.7 ESE 4 7 2 4 1027.2 1027.2 0.0
21/02:30pm 13.4 11.6 7.8 69 2.8 ENE 7 9 4 5 1027.3 1027.3 0.0
21/02:00pm 12.9 11.0 7.4 69 2.7 ENE 7 11 4 6 1027.4 1027.4 0.0
21/01:30pm 12.7 10.7 7.0 68 2.7 ENE 7 11 4 6 1027.6 1027.7 0.0
21/01:00pm 12.6 10.2 6.9 68 2.7 NE 9 13 5 7 1027.9 1028.0 0.0
21/12:30pm 13.0 11.2 7.9 71 2.5 NE 7 9 4 5 1028.2 1028.3 0.0
21/12:00pm 13.3 12.2 8.4 72 2.4 NE 4 7 2 4 1028.6 1028.7 0.0
21/11:30am 12.3 11.0 7.8 74 2.2 NNE 4 6 2 3 1029.1 1029.2 0.0
21/11:00am 11.5 9.7 7.8 78 1.8 N 7 13 4 7 1029.3 1029.4 0.0
21/10:30am 11.8 10.5 7.7 76 2.0 NE 4 9 2 5 1029.5 1029.6 0.0
21/10:00am 11.2 9.3 7.7 79 1.7 NNE 7 9 4 5 1029.5 1029.6 0.0
21/09:30am 10.6 9.8 9.7 94 0.5 WNW 4 7 2 4 1029.5 1029.6 0.0
21/09:00am 9.0 8.6 8.2 95 0.4 CALM 0 0 0 0 1029.5 1029.6 0.0
21/08:30am 7.6 6.5 6.9 95 0.3 W 2 4 1 2 1029.4 1029.5 0.0
21/08:00am 6.0 4.9 5.3 95 0.3 CALM 0 0 0 0 1029.2 1029.3 0.0
21/07:30am 4.8 2.3 3.9 94 0.4 S 6 9 3 5 1028.7 1028.8 0.0
21/07:00am 5.2 3.2 4.3 94 0.4 S 4 6 2 3 1028.6 1028.7 0.0
21/06:30am 5.5 4.3 4.8 95 0.3 CALM 0 0 0 0 1028.5 1028.6 0.0
21/06:00am 5.2 3.2 4.3 94 0.4 NW 4 6 2 3 1028.4 1028.5 0.0
21/05:30am 4.5 2.7 3.6 94 0.4 WNW 2 4 1 2 1028.3 1028.4 0.0
21/05:00am 3.7 1.4 2.8 94 0.4 WNW 4 6 2 3 1028.3 1028.4 0.0
21/04:30am 3.9 1.6 3.0 94 0.4 NNW 4 6 2 3 1028.2 1028.3 0.0
21/04:00am 3.9 1.6 3.0 94 0.4 NNW 4 6 2 3 1028.1 1028.2 0.0
21/03:30am 3.7 2.2 2.8 94 0.4 CALM 0 0 0 0 1028.2 1028.3 0.0
21/03:00am 4.5 3.1 3.6 94 0.4 CALM 0 0 0 0 1028.1 1028.2 0.0
21/02:30am 4.3 2.9 3.4 94 0.4 CALM 0 0 0 0 1028.1 1028.2 0.0
21/02:00am 4.6 3.2 3.7 94 0.4 CALM 0 0 0 0 1028.1 1028.2 0.0
21/01:30am 5.2 3.6 4.3 94 0.4 WNW 2 6 1 3 1028.2 1028.3 0.0
21/01:00am 5.7 4.2 4.8 94 0.4 WSW 2 4 1 2 1028.1 1028.2 0.0
21/12:30am 6.1 5.0 5.1 93 0.4 CALM 0 0 0 0 1028.1 1028.2 0.0
21/12:00am 6.5 5.5 5.5 93 0.4 CALM 0 0 0 0 1028.1 1028.2 0.0
 
Date/Time
EST
Temp
°C
App
Temp
°C
Dew
Point
Rel
Hum
%
Delta-T
°C
Wind Press
QNH
hPa
Press
MSL
hPa
Rain
since 9 am
mm
Dir
 
Spd
km/h
Gust
km/h
Spd
kts
Gust
kts
20/11:30pm 6.8 5.8 5.7 93 0.5 CALM 0 0 0 0 1028.2 1028.3 0.0
20/11:00pm 7.0 6.1 5.9 93 0.5 CALM 0 0 0 0 1028.3 1028.4 0.0
20/10:30pm 7.2 5.9 6.1 93 0.5 WSW 2 4 1 2 1028.4 1028.5 0.0
20/10:00pm 6.8 5.4 5.7 93 0.5 WSW 2 4 1 2 1028.6 1028.7 0.0
20/09:30pm 7.1 5.4 6.0 93 0.5 WSW 4 6 2 3 1028.6 1028.7 0.0
20/09:00pm 7.3 5.7 6.2 93 0.5 W 4 4 2 2 1028.7 1028.8 0.0
20/08:30pm 7.7 6.9 6.6 93 0.5 CALM 0 0 0 0 1028.6 1028.7 0.0
20/08:00pm 7.4 6.5 6.2 92 0.5 CALM 0 0 0 0 1028.6 1028.7 0.0
20/07:30pm 8.0 7.3 6.8 92 0.6 CALM 0 0 0 0 1028.5 1028.6 0.0
20/07:00pm 8.2 6.9 6.0 86 1.0 SSW 2 2 1 1 1028.4 1028.5 0.0
20/06:30pm 9.2 7.6 6.3 82 1.3 SSW 4 6 2 3 1028.0 1028.1 0.0
20/06:00pm 10.4 7.8 6.0 74 2.0 S 9 13 5 7 1027.9 1028.0 0.0
20/05:30pm 11.4 9.1 5.5 67 2.7 S 7 13 4 7 1027.6 1027.7 0.0
20/05:00pm 11.9 9.1 5.3 64 3.0 S 9 15 5 8 1027.4 1027.4 0.0
20/04:30pm 12.4 9.6 5.3 62 3.3 SSE 9 19 5 10 1027.2 1027.2 0.0
20/04:00pm 11.9 9.2 5.5 65 2.9 S 9 15 5 8 1027.0 1027.0 0.0
20/03:30pm 12.7 9.1 5.1 60 3.5 SSE 13 19 7 10 1026.8 1026.8 0.0
20/03:00pm 11.8 7.5 5.4 65 2.9 S 17 20 9 11 1026.8 1026.8 0.0
20/02:30pm 12.7 9.1 5.1 60 3.5 SE 13 17 7 9 1026.6 1026.6 0.0
20/02:00pm 12.8 10.0 5.2 60 3.5 S 9 15 5 8 1026.5 1026.5 0.0

Other Formats:

Comma delimited format used in spreadsheet applications
http://www.bom.gov.au/fwo/IDV60801/IDV60801.94857.axf

JavaScript Object Notation format (JSON) in row-major order
http://www.bom.gov.au/fwo/IDV60801/IDV60801.94857.json